Time;durP1;ratioP1;P1;durP2;ratioP2;P2;SDS_P1;SDS_P2;PMS_P1;PMS_P2;Temp;Humidity;BMP_temperature;BMP_pressure;BME280_temperature;BME280_humidity;BME280_pressure;Samples;Min_cycle;Max_cycle;Signal;HPM_P1;HPM_P2
2022/02/24 00:02:23;;;;;;;8.77;4.72;;;;;;;4.03;59.36;95955.22;5026716;28;20032;-76
2022/02/24 00:04:49;;;;;;;11.30;4.68;;;;;;;4.02;59.55;95953.56;5025132;28;20029;-79
2022/02/24 00:07:14;;;;;;;9.00;4.57;;;;;;;4.15;58.57;95949.91;5009605;28;20025;-77
2022/02/24 00:09:39;;;;;;;8.55;5.22;;;;;;;3.90;58.91;95949.22;5024893;28;20026;-77
2022/02/24 00:12:05;;;;;;;8.60;4.47;;;;;;;3.90;59.26;95955.38;5025184;28;20029;-77
2022/02/24 00:14:31;;;;;;;7.20;4.45;;;;;;;3.93;59.68;95954.28;5026337;28;20029;-77
2022/02/24 00:16:56;;;;;;;11.00;4.80;;;;;;;4.00;58.69;95960.78;5025571;28;20080;-76
2022/02/24 00:19:22;;;;;;;9.43;4.47;;;;;;;4.06;58.34;95960.28;5026338;28;20040;-77
2022/02/24 00:21:47;;;;;;;12.45;5.30;;;;;;;4.03;58.12;95949.91;5026687;28;20026;-77
2022/02/24 00:24:13;;;;;;;9.98;4.47;;;;;;;4.08;57.74;95958.38;5025088;28;20022;-77
2022/02/24 00:26:38;;;;;;;9.57;4.20;;;;;;;4.00;57.86;95958.13;5025943;28;20077;-77
2022/02/24 00:29:04;;;;;;;8.20;4.30;;;;;;;4.04;57.68;95956.94;5025197;28;20110;-77
2022/02/24 00:31:29;;;;;;;7.70;4.10;;;;;;;4.01;57.60;95951.88;5007860;28;20474;-77
2022/02/24 00:33:55;;;;;;;13.15;5.22;;;;;;;4.01;57.91;95946.56;5026106;28;20033;-77
2022/02/24 00:36:20;;;;;;;11.85;5.68;;;;;;;3.94;58.32;95950.66;5024633;28;20027;-76
2022/02/24 00:38:45;;;;;;;10.85;5.53;;;;;;;3.97;57.96;95949.59;5026188;28;20022;-76
2022/02/24 00:41:11;;;;;;;11.35;6.00;;;;;;;3.95;58.19;95947.88;5025623;28;20033;-77
2022/02/24 00:43:36;;;;;;;9.55;5.50;;;;;;;3.88;57.64;95943.19;5026069;28;20018;-75
2022/02/24 00:46:03;;;;;;;16.45;5.75;;;;;;;3.79;58.21;95942.97;5024464;28;20454;-77
2022/02/24 00:48:28;;;;;;;9.15;5.22;;;;;;;3.66;58.49;95947.56;5025797;28;20025;-77
2022/02/24 00:50:54;;;;;;;18.60;5.95;;;;;;;3.67;58.18;95952.75;5025944;28;20025;-77
2022/02/24 00:53:19;;;;;;;14.85;6.25;;;;;;;3.64;58.39;95944.19;5024224;28;20026;-77
2022/02/24 00:55:45;;;;;;;13.27;6.22;;;;;;;3.61;58.41;95945.25;5025497;28;20044;-76
2022/02/24 00:58:10;;;;;;;12.90;5.47;;;;;;;3.64;58.29;95934.44;5025172;28;20018;-77
2022/02/24 01:00:35;;;;;;;11.60;5.30;;;;;;;3.62;58.35;95940.81;5024657;28;20017;-77
2022/02/24 01:03:01;;;;;;;8.35;4.47;;;;;;;3.48;58.68;95942.75;5024031;28;20072;-77
2022/02/24 01:05:26;;;;;;;10.32;5.05;;;;;;;3.40;58.64;95939.84;5025405;28;20036;-77
2022/02/24 01:07:52;;;;;;;7.88;4.72;;;;;;;3.32;58.93;95935.97;5025540;28;20021;-78
2022/02/24 01:10:17;;;;;;;9.50;4.47;;;;;;;3.36;58.85;95941.03;5024278;28;20080;-77
2022/02/24 01:12:43;;;;;;;8.80;4.93;;;;;;;3.38;58.69;95942.63;5024247;28;20087;-78
2022/02/24 01:15:08;;;;;;;20.45;5.30;;;;;;;3.41;58.21;95944.19;5024997;28;20076;-77
2022/02/24 01:17:35;;;;;;;11.48;4.90;;;;;;;3.38;58.74;95923.19;5025774;28;20025;-78
2022/02/24 01:20:01;;;;;;;11.13;5.05;;;;;;;3.38;58.92;95931.16;5024958;28;20029;-78
2022/02/24 01:22:26;;;;;;;12.57;4.97;;;;;;;3.34;59.07;95920.78;5024265;28;20030;-76
2022/02/24 01:24:51;;;;;;;8.35;5.10;;;;;;;3.28;58.72;95920.41;5025406;28;20028;-76
2022/02/24 01:27:17;;;;;;;7.97;4.50;;;;;;;3.22;59.36;95919.09;5007312;28;20018;-77
2022/02/24 01:29:43;;;;;;;9.80;5.07;;;;;;;3.19;59.24;95914.03;5024271;28;20395;-76
2022/02/24 01:32:08;;;;;;;11.73;5.28;;;;;;;3.12;59.57;95918.97;5024552;28;20526;-77
2022/02/24 01:34:34;;;;;;;10.15;4.93;;;;;;;3.08;59.64;95914.84;5024171;28;20021;-77
2022/02/24 01:36:59;;;;;;;16.63;6.10;;;;;;;3.09;59.73;95920.03;5024630;28;20511;-77
2022/02/24 01:39:24;;;;;;;17.15;5.40;;;;;;;3.09;59.92;95920.03;5026106;28;20028;-76
2022/02/24 01:41:52;;;;;;;13.13;4.88;;;;;;;3.11;59.50;95921.75;5024938;28;20228;-77
2022/02/24 01:44:17;;;;;;;15.20;5.30;;;;;;;3.06;59.38;95925.56;5023438;28;20025;-76
2022/02/24 01:46:43;;;;;;;14.38;5.32;;;;;;;3.05;59.79;95931.84;5007583;28;20474;-78
2022/02/24 01:49:09;;;;;;;10.93;5.68;;;;;;;3.02;59.85;95926.78;5023309;28;20493;-76
2022/02/24 01:51:35;;;;;;;12.98;5.38;;;;;;;3.02;59.95;95929.44;5023768;28;20080;-76
2022/02/24 01:54:00;;;;;;;7.78;4.32;;;;;;;3.01;59.77;95927.75;5023102;28;20080;-77
2022/02/24 01:56:26;;;;;;;8.88;4.90;;;;;;;2.97;59.93;95927.13;5023991;28;20020;-77
2022/02/24 01:58:51;;;;;;;13.15;5.32;;;;;;;2.85;60.45;95914.84;5006829;28;20099;-78
2022/02/24 02:01:17;;;;;;;7.00;4.05;;;;;;;2.75;60.25;95917.34;5024997;28;20033;-78
2022/02/24 02:03:43;;;;;;;11.02;4.80;;;;;;;2.70;60.76;95922.13;5024862;28;20026;-75
2022/02/24 02:06:09;;;;;;;13.70;5.13;;;;;;;2.64;60.54;95925.25;5023207;28;20084;-78
2022/02/24 02:08:34;;;;;;;18.73;5.07;;;;;;;2.58;60.40;95915.94;5027316;28;20059;-77
2022/02/24 02:10:59;;;;;;;8.82;4.32;;;;;;;2.49;61.30;95920.13;5010916;28;20037;-78
2022/02/24 02:13:25;;;;;;;12.00;5.47;;;;;;;2.45;60.80;95926.63;5028652;28;20458;-77
2022/02/24 02:15:53;;;;;;;9.10;4.53;;;;;;;2.42;61.46;95929.50;5028516;28;20561;-78
2022/02/24 02:18:19;;;;;;;15.82;5.68;;;;;;;2.33;61.60;95928.38;5028734;28;20113;-76
2022/02/24 02:20:45;;;;;;;8.82;4.05;;;;;;;2.22;61.73;95931.81;5027214;28;20567;-78
2022/02/24 02:23:11;;;;;;;10.10;4.28;;;;;;;2.20;61.94;95933.72;5028490;28;20120;-77
2022/02/24 02:25:36;;;;;;;9.32;4.50;;;;;;;2.25;61.46;95925.44;5027489;28;20121;-78
2022/02/24 02:28:02;;;;;;;9.80;4.97;;;;;;;2.28;61.99;95926.06;5028339;28;20314;-77
2022/02/24 02:30:27;;;;;;;12.93;5.63;;;;;;;2.34;61.94;95932.69;5028268;28;20036;-76
2022/02/24 02:32:53;;;;;;;9.35;4.50;;;;;;;2.28;61.65;95931.38;5028020;28;20045;-76
2022/02/24 02:35:18;;;;;;;8.70;3.95;;;;;;;2.31;61.42;95941.72;5027267;28;20030;-76
2022/02/24 02:37:43;;;;;;;9.30;4.40;;;;;;;2.29;61.65;95942.81;5028189;28;20079;-77
2022/02/24 02:40:09;;;;;;;9.15;4.00;;;;;;;2.34;61.37;95944.16;5027074;28;20029;-76
2022/02/24 02:42:35;;;;;;;10.70;4.35;;;;;;;2.36;61.57;95954.63;5026819;28;20025;-77
2022/02/24 02:45:01;;;;;;;12.57;4.65;;;;;;;2.33;61.11;95942.47;5027967;28;20037;-76
2022/02/24 02:47:26;;;;;;;8.75;4.38;;;;;;;2.38;61.37;95946.56;5028368;28;20021;-76
2022/02/24 02:49:51;;;;;;;7.72;4.55;;;;;;;2.43;61.15;95947.94;5028265;28;20091;-78
2022/02/24 02:52:17;;;;;;;6.95;4.18;;;;;;;2.43;60.58;95955.00;5028063;28;20025;-76
2022/02/24 02:54:42;;;;;;;8.02;4.05;;;;;;;2.42;60.54;95958.63;5026760;28;20025;-76
2022/02/24 02:57:08;;;;;;;13.23;4.43;;;;;;;2.32;60.82;95967.22;5028387;28;20411;-76
2022/02/24 02:59:33;;;;;;;7.75;4.15;;;;;;;2.33;61.02;95970.72;5027309;28;20025;-78
2022/02/24 03:01:58;;;;;;;7.18;4.10;;;;;;;2.31;61.44;95973.50;5026658;28;20488;-76
2022/02/24 03:04:24;;;;;;;10.05;5.28;;;;;;;2.32;60.87;95979.63;5027911;28;20407;-77
2022/02/24 03:06:49;;;;;;;10.88;4.50;;;;;;;2.34;60.92;95978.56;5027707;28;20480;-76
2022/02/24 03:09:15;;;;;;;10.82;4.32;;;;;;;2.39;61.18;95982.66;5028322;28;20018;-76
2022/02/24 03:11:40;;;;;;;6.88;4.47;;;;;;;2.43;61.05;95981.50;5009679;28;20052;-77
2022/02/24 03:14:06;;;;;;;8.90;4.47;;;;;;;2.49;60.88;95973.09;5027897;28;20480;-77
2022/02/24 03:16:31;;;;;;;11.13;4.80;;;;;;;2.48;60.97;95982.00;5027097;28;20474;-78
2022/02/24 03:18:57;;;;;;;9.50;4.55;;;;;;;2.37;60.90;95984.59;5027833;28;20021;-76
2022/02/24 03:21:22;;;;;;;9.82;3.88;;;;;;;2.46;61.02;95991.84;5026957;28;20104;-78
2022/02/24 03:23:49;;;;;;;7.53;4.35;;;;;;;2.51;60.84;95981.78;5027557;28;20483;-77
2022/02/24 03:26:14;;;;;;;9.13;4.28;;;;;;;2.58;60.66;95990.94;5027851;28;20021;-77
2022/02/24 03:28:40;;;;;;;7.95;4.18;;;;;;;2.56;60.84;95982.25;5026973;28;20040;-78
2022/02/24 03:31:05;;;;;;;9.68;4.32;;;;;;;2.54;60.52;95984.19;5027438;28;20042;-77
2022/02/24 03:33:30;;;;;;;11.68;4.13;;;;;;;2.59;60.00;95990.00;5025326;28;20095;-78
2022/02/24 03:35:56;;;;;;;7.30;4.15;;;;;;;2.56;60.55;95987.56;5026375;28;20021;-78
2022/02/24 03:38:21;;;;;;;10.65;4.18;;;;;;;2.40;61.16;95993.13;5025884;28;20044;-78
2022/02/24 03:40:47;;;;;;;12.50;4.10;;;;;;;2.42;60.46;96004.47;5027396;28;20079;-77
2022/02/24 03:43:12;;;;;;;7.22;3.80;;;;;;;2.50;60.25;96001.25;5026019;28;20025;-77
2022/02/24 03:45:38;;;;;;;10.05;5.10;;;;;;;2.46;60.57;96003.31;5026736;28;20025;-77
2022/02/24 03:48:03;;;;;;;9.25;4.05;;;;;;;2.57;60.62;96002.50;5027338;28;20037;-76
2022/02/24 03:50:29;;;;;;;9.05;4.60;;;;;;;2.58;60.54;95998.91;5025271;28;20484;-77
2022/02/24 03:52:54;;;;;;;5.63;4.13;;;;;;;2.62;60.34;96009.25;5025689;28;20037;-76
2022/02/24 03:55:20;;;;;;;5.97;3.55;;;;;;;2.65;60.37;96003.72;5026692;28;20041;-76
2022/02/24 03:57:45;;;;;;;5.80;4.13;;;;;;;2.61;60.60;96007.56;5026994;28;20049;-78
2022/02/24 04:00:11;;;;;;;7.55;3.75;;;;;;;2.62;61.00;96004.81;5025338;28;20029;-75
2022/02/24 04:02:37;;;;;;;10.40;4.13;;;;;;;2.65;60.57;96009.03;5026872;28;20124;-77
2022/02/24 04:05:02;;;;;;;9.63;4.63;;;;;;;2.74;60.39;96010.16;5025873;28;20356;-76
2022/02/24 04:07:28;;;;;;;11.70;4.50;;;;;;;2.69;60.51;96013.16;5026777;28;20116;-77
2022/02/24 04:09:53;;;;;;;9.25;4.82;;;;;;;2.67;60.78;96009.78;5026848;28;20040;-76
2022/02/24 04:12:18;;;;;;;7.25;4.32;;;;;;;2.71;60.28;96006.78;5026592;28;20025;-77
2022/02/24 04:14:44;;;;;;;7.57;4.22;;;;;;;2.62;60.62;96001.31;5026678;28;20032;-77
2022/02/24 04:17:10;;;;;;;10.57;3.95;;;;;;;2.65;60.44;95998.44;5024849;28;20045;-77
2022/02/24 04:19:35;;;;;;;7.75;4.20;;;;;;;2.69;60.28;96003.38;4992606;28;20401;-78
2022/02/24 04:22:01;;;;;;;8.60;4.63;;;;;;;2.74;60.11;96003.03;5025173;28;20522;-77
2022/02/24 04:24:26;;;;;;;10.02;4.70;;;;;;;2.75;59.91;96003.91;5024541;28;20568;-78
2022/02/24 04:26:52;;;;;;;12.05;5.22;;;;;;;2.75;60.21;96004.75;5025053;28;20033;-78
2022/02/24 04:29:17;;;;;;;9.10;5.05;;;;;;;2.81;59.25;96008.72;5025913;28;20026;-77
2022/02/24 04:31:43;;;;;;;10.93;5.40;;;;;;;2.83;59.04;96007.69;5025356;28;20504;-79
2022/02/24 04:34:08;;;;;;;10.90;5.00;;;;;;;2.79;59.42;96006.19;5025703;28;20515;-76
2022/02/24 04:36:33;;;;;;;13.07;5.40;;;;;;;2.72;59.87;96011.09;5028328;28;20044;-79
2022/02/24 04:38:59;;;;;;;9.73;4.93;;;;;;;2.66;59.96;96021.34;5026808;28;20419;-79
2022/02/24 04:41:24;;;;;;;13.93;5.20;;;;;;;2.65;59.81;96016.97;5024895;28;20036;-77
2022/02/24 04:43:50;;;;;;;8.50;4.65;;;;;;;2.58;60.25;96017.44;5026001;28;20408;-77
2022/02/24 04:46:15;;;;;;;8.93;5.25;;;;;;;2.44;60.25;96014.94;5024575;28;20511;-77
2022/02/24 04:48:41;;;;;;;9.00;4.50;;;;;;;2.36;60.83;96018.16;5025098;28;20028;-77
2022/02/24 04:51:06;;;;;;;12.00;4.82;;;;;;;2.25;61.06;96004.84;5025415;28;20036;-77
2022/02/24 04:53:39;;;;;;;8.55;4.15;;;;;;;2.05;61.87;96015.06;5108350;27;1296687;-77
2022/02/24 04:56:06;;;;;;;7.10;3.97;;;;;;;1.96;62.04;96021.88;5122606;28;20032;-78
2022/02/24 04:58:32;;;;;;;9.75;4.35;;;;;;;1.96;62.53;96032.44;5124739;27;20023;-78
2022/02/24 05:00:57;;;;;;;8.65;4.22;;;;;;;1.95;61.79;96034.25;5124787;27;20019;-78
2022/02/24 05:03:23;;;;;;;7.30;3.83;;;;;;;1.93;61.85;96038.81;5123386;28;20023;-77
2022/02/24 05:05:48;;;;;;;10.00;4.55;;;;;;;1.84;62.63;96039.44;5107001;28;20482;-78
2022/02/24 05:08:14;;;;;;;6.68;3.53;;;;;;;1.84;62.64;96044.72;5101368;28;20031;-79
2022/02/24 05:10:39;;;;;;;10.02;4.80;;;;;;;1.80;62.44;96046.78;5104583;28;20035;-78
2022/02/24 05:13:04;;;;;;;13.73;4.93;;;;;;;1.80;62.38;96051.19;5101299;28;20509;-76
2022/02/24 05:15:30;;;;;;;11.40;5.38;;;;;;;1.83;62.27;96059.78;5103050;28;20174;-77
2022/02/24 05:17:55;;;;;;;10.65;5.40;;;;;;;1.83;61.67;96064.22;5102146;28;20031;-78
2022/02/24 05:20:21;;;;;;;10.02;5.00;;;;;;;1.78;61.89;96072.47;5101880;28;20035;-77
2022/02/24 05:22:46;;;;;;;10.68;4.15;;;;;;;1.90;62.06;96069.94;5104248;28;20028;-78
2022/02/24 05:25:15;;;;;;;13.88;5.18;;;;;;;1.89;61.46;96078.78;5102160;28;20024;-80
2022/02/24 05:27:44;;;;;;;10.15;5.00;;;;;;;1.88;61.46;96074.47;5086141;28;20396;-80
2022/02/24 05:30:15;;;;;;;9.40;4.03;;;;;;;1.98;61.15;96083.47;5083710;28;20055;-79
2022/02/24 05:32:41;;;;;;;8.82;4.28;;;;;;;1.99;60.43;96085.16;5103923;28;20137;-79
2022/02/24 05:35:06;;;;;;;8.85;4.25;;;;;;;1.97;60.92;96085.25;5103064;28;20106;-78
2022/02/24 05:37:34;;;;;;;6.70;3.83;;;;;;;2.00;61.14;96078.91;5103277;28;20027;-78
2022/02/24 05:39:59;;;;;;;10.80;4.40;;;;;;;2.05;60.66;96090.00;5102353;28;20497;-78
2022/02/24 05:42:25;;;;;;;8.18;4.82;;;;;;;2.19;60.44;96090.84;5102334;28;20024;-77
2022/02/24 05:44:50;;;;;;;13.15;4.80;;;;;;;2.32;60.06;96096.13;5102816;28;20024;-78
2022/02/24 05:47:17;;;;;;;12.30;5.25;;;;;;;2.40;59.46;96093.75;5101677;28;20337;-78
2022/02/24 05:49:42;;;;;;;9.40;4.53;;;;;;;2.55;58.85;96090.94;5102522;28;20028;-77
2022/02/24 05:52:07;;;;;;;8.73;4.78;;;;;;;2.66;58.73;96100.78;5101839;28;20066;-78
2022/02/24 05:54:33;;;;;;;10.52;5.72;;;;;;;2.77;58.63;96098.22;5102105;28;20039;-78
2022/02/24 05:56:58;;;;;;;15.18;5.70;;;;;;;2.95;58.17;96093.34;5084967;28;20020;-77
2022/02/24 05:59:24;;;;;;;12.45;6.03;;;;;;;3.12;57.23;96101.00;5102087;28;20028;-78
2022/02/24 06:01:49;;;;;;;12.90;6.55;;;;;;;3.28;57.74;96098.06;5085252;28;20028;-77
2022/02/24 06:04:15;;;;;;;15.27;7.60;;;;;;;3.43;57.50;96104.03;5090873;28;20081;-77
2022/02/24 06:06:40;;;;;;;16.20;7.97;;;;;;;3.63;57.24;96106.97;5088817;28;20035;-78
2022/02/24 06:09:06;;;;;;;12.38;7.00;;;;;;;3.84;56.42;96107.13;5087842;28;20406;-77
2022/02/24 06:11:31;;;;;;;15.90;7.45;;;;;;;4.01;55.01;96105.84;5089738;28;20487;-78
2022/02/24 06:13:57;;;;;;;15.80;6.70;;;;;;;4.16;53.97;96113.56;5088562;28;20020;-78
2022/02/24 06:16:22;;;;;;;14.85;7.20;;;;;;;4.37;54.08;96121.63;5070544;28;20028;-78
2022/02/24 06:18:48;;;;;;;10.45;6.22;;;;;;;4.63;52.48;96118.72;5089560;28;20028;-77
2022/02/24 06:21:16;;;;;;;9.52;4.65;;;;;;;4.94;50.51;96118.06;5087839;28;20161;-76
2022/02/24 06:23:42;;;;;;;11.13;3.60;;;;;;;5.25;48.77;96112.91;5088309;28;20024;-76
2022/02/24 06:26:07;;;;;;;8.38;3.50;;;;;;;5.52;47.30;96113.38;5087617;28;20032;-77
2022/02/24 06:28:32;;;;;;;6.35;2.65;;;;;;;5.80;45.99;96117.19;5089620;28;20024;-78
2022/02/24 06:30:58;;;;;;;5.40;2.55;;;;;;;6.00;45.08;96111.16;5087950;28;20051;-77
2022/02/24 06:33:23;;;;;;;4.40;2.75;;;;;;;6.21;45.32;96119.16;5088764;28;20040;-77
2022/02/24 06:35:49;;;;;;;6.38;2.67;;;;;;;6.42;44.10;96112.91;5087546;28;20508;-77
2022/02/24 06:38:14;;;;;;;5.78;2.88;;;;;;;6.55;43.89;96112.69;5086757;28;20028;-78
2022/02/24 06:40:40;;;;;;;2.60;2.00;;;;;;;6.77;43.75;96122.31;5089523;28;20028;-78
2022/02/24 06:43:05;;;;;;;6.68;2.80;;;;;;;6.90;42.53;96126.56;5087465;28;20409;-78
2022/02/24 06:45:31;;;;;;;3.00;2.13;;;;;;;7.01;42.74;96118.41;5089079;28;20036;-78
2022/02/24 06:47:56;;;;;;;7.38;2.72;;;;;;;7.27;42.73;96128.56;5087265;28;20023;-77
2022/02/24 06:50:22;;;;;;;6.15;3.00;;;;;;;7.40;42.70;96130.97;5087622;28;20081;-78
2022/02/24 06:52:47;;;;;;;7.93;3.47;;;;;;;7.66;41.92;96126.88;5087478;28;20044;-78
2022/02/24 06:55:12;;;;;;;11.30;3.72;;;;;;;7.79;41.38;96135.44;5088555;28;20032;-78
2022/02/24 06:57:39;;;;;;;6.70;3.15;;;;;;;7.94;41.60;96145.69;5088654;28;20089;-78
2022/02/24 07:00:05;;;;;;;4.43;2.20;;;;;;;8.10;40.97;96147.78;5087580;28;20031;-77
2022/02/24 07:02:31;;;;;;;4.75;2.90;;;;;;;8.10;40.03;96149.59;5088807;28;20056;-77
2022/02/24 07:04:56;;;;;;;8.95;4.00;;;;;;;7.99;40.98;96151.47;5085845;28;20058;-77
2022/02/24 07:07:22;;;;;;;10.27;5.25;;;;;;;7.42;42.94;96146.84;5088899;28;20422;-77
2022/02/24 07:09:47;;;;;;;8.68;5.32;;;;;;;6.93;44.33;96159.13;5085774;28;20027;-78
2022/02/24 07:12:13;;;;;;;10.23;6.50;;;;;;;6.74;44.72;96154.56;5088607;28;20024;-78
2022/02/24 07:14:38;;;;;;;10.75;6.78;;;;;;;6.61;45.53;96148.63;5087580;28;20020;-77
2022/02/24 07:17:04;;;;;;;6.45;3.88;;;;;;;6.42;44.74;96147.56;5087071;28;20024;-77
2022/02/24 07:19:29;;;;;;;7.57;2.53;;;;;;;6.65;44.19;96152.72;5088432;28;20107;-77
2022/02/24 07:21:54;;;;;;;8.02;3.10;;;;;;;6.41;44.69;96148.56;5086951;28;20036;-80
2022/02/24 07:24:21;;;;;;;4.65;2.60;;;;;;;6.24;44.78;96145.50;5087254;28;20410;-78
2022/02/24 07:26:46;;;;;;;5.85;2.55;;;;;;;6.50;44.62;96137.09;5068353;28;20089;-79
2022/02/24 07:29:12;;;;;;;9.52;4.57;;;;;;;6.36;44.93;96145.44;5088513;28;20490;-78
2022/02/24 07:31:37;;;;;;;14.52;2.90;;;;;;;6.19;44.13;96145.06;5086721;28;20041;-78
2022/02/24 07:34:04;;;;;;;8.27;3.97;;;;;;;5.87;45.17;96141.47;5069582;28;20108;-79
2022/02/24 07:36:31;;;;;;;11.38;3.67;;;;;;;5.88;45.06;96145.84;5088353;28;20028;-78
2022/02/24 07:38:57;;;;;;;8.35;2.80;;;;;;;5.82;45.62;96147.19;5085567;28;20103;-77
2022/02/24 07:41:22;;;;;;;7.93;2.50;;;;;;;5.87;45.55;96146.81;5087036;28;20546;-78
2022/02/24 07:43:48;;;;;;;5.85;2.90;;;;;;;5.81;45.31;96142.00;5086044;28;20028;-78
2022/02/24 07:46:13;;;;;;;6.78;3.55;;;;;;;5.66;44.33;96149.47;5088162;28;20028;-78
2022/02/24 07:48:39;;;;;;;17.48;3.65;;;;;;;5.77;45.13;96146.75;5086556;28;20035;-77
2022/02/24 07:51:04;;;;;;;6.13;3.00;;;;;;;5.75;45.76;96146.06;5087678;28;20031;-79
2022/02/24 07:53:30;;;;;;;7.05;2.45;;;;;;;5.61;44.72;96141.84;5086557;28;20051;-78
2022/02/24 07:55:55;;;;;;;4.70;2.53;;;;;;;5.60;45.75;96142.00;5068962;28;20468;-78
2022/02/24 07:58:21;;;;;;;8.52;2.90;;;;;;;5.54;45.19;96128.25;5087984;28;20020;-77
2022/02/24 08:00:46;;;;;;;4.47;2.38;;;;;;;5.48;46.11;96144.69;5067838;28;20469;-78
2022/02/24 08:03:12;;;;;;;4.68;2.50;;;;;;;5.55;45.22;96129.94;5086723;28;20451;-78
2022/02/24 08:05:37;;;;;;;3.70;2.40;;;;;;;5.51;44.94;96135.63;5085664;28;20027;-76
2022/02/24 08:08:03;;;;;;;5.80;2.58;;;;;;;5.68;45.06;96128.88;5087701;28;20418;-77
2022/02/24 08:10:28;;;;;;;5.57;2.55;;;;;;;5.57;45.79;96129.78;5086455;28;20520;-78
2022/02/24 08:12:54;;;;;;;7.20;3.40;;;;;;;5.42;45.26;96132.75;5085843;28;20046;-76
2022/02/24 08:15:20;;;;;;;6.65;3.22;;;;;;;5.47;44.82;96135.03;5085822;28;20020;-77
2022/02/24 08:17:46;;;;;;;7.80;3.38;;;;;;;5.51;44.84;96152.47;5084852;28;20031;-78
2022/02/24 08:20:11;;;;;;;7.75;3.22;;;;;;;5.53;45.93;96153.16;5086196;28;20028;-77
2022/02/24 08:22:39;;;;;;;7.15;3.35;;;;;;;5.55;46.11;96158.34;5084006;28;20029;-77
2022/02/24 08:25:06;;;;;;;7.30;3.20;;;;;;;5.55;45.85;96153.88;5086433;28;20016;-78
2022/02/24 08:27:34;;;;;;;6.35;3.35;;;;;;;5.65;45.56;96153.09;5085321;28;20031;-78
2022/02/24 08:30:02;;;;;;;4.72;2.47;;;;;;;5.75;45.89;96153.19;5085834;28;20054;-80
2022/02/24 08:32:27;;;;;;;4.95;2.60;;;;;;;5.83;44.85;96150.72;5085369;28;20023;-78
2022/02/24 08:34:53;;;;;;;9.43;2.75;;;;;;;6.18;44.24;96149.56;5084877;28;20551;-79
2022/02/24 08:37:18;;;;;;;6.18;2.40;;;;;;;6.67;44.13;96148.91;5087056;28;20028;-78
2022/02/24 08:39:44;;;;;;;5.57;2.05;;;;;;;6.49;43.77;96147.88;5085166;28;20469;-78
2022/02/24 08:42:09;;;;;;;6.50;2.22;;;;;;;6.44;44.56;96145.63;5087132;28;20016;-75
2022/02/24 08:44:35;;;;;;;5.85;2.60;;;;;;;6.43;43.73;96151.94;5085133;28;20532;-78
2022/02/24 08:47:00;;;;;;;4.78;2.53;;;;;;;6.99;43.35;96154.22;5085754;28;20081;-77
2022/02/24 08:49:25;;;;;;;7.47;2.40;;;;;;;6.65;43.79;96140.25;5067363;28;20032;-78
2022/02/24 08:51:51;;;;;;;4.28;2.50;;;;;;;6.79;44.58;96151.50;5086354;28;20482;-78
2022/02/24 08:54:16;;;;;;;4.95;2.92;;;;;;;6.72;44.77;96145.03;5084850;28;20055;-79
2022/02/24 08:56:42;;;;;;;4.65;2.50;;;;;;;6.69;44.27;96146.13;5085699;28;20032;-77
2022/02/24 08:59:07;;;;;;;4.45;2.53;;;;;;;7.07;43.93;96134.84;5086714;28;20266;-78
2022/02/24 09:01:33;;;;;;;4.80;2.65;;;;;;;7.37;43.95;96141.06;5085042;28;20474;-79
2022/02/24 09:03:58;;;;;;;3.55;2.20;;;;;;;7.42;43.87;96145.03;5085372;28;20028;-76
2022/02/24 09:06:23;;;;;;;5.20;2.17;;;;;;;7.43;43.59;96137.88;5084818;28;20410;-77
2022/02/24 09:08:49;;;;;;;4.90;2.20;;;;;;;6.95;44.85;96140.31;5085511;28;20510;-78
2022/02/24 09:11:14;;;;;;;4.15;1.98;;;;;;;7.39;44.24;96141.78;5084325;28;20024;-78
2022/02/24 09:13:41;;;;;;;3.00;2.08;;;;;;;7.45;44.03;96140.41;5084857;28;20138;-78
2022/02/24 09:16:08;;;;;;;3.63;2.17;;;;;;;7.40;43.54;96138.13;5086516;28;20073;-77
2022/02/24 09:18:34;;;;;;;4.25;2.20;;;;;;;7.57;43.62;96151.75;5067257;28;20036;-77
2022/02/24 09:20:59;;;;;;;4.13;2.30;;;;;;;7.52;43.20;96153.03;5086654;28;20047;-78
2022/02/24 09:23:25;;;;;;;4.30;2.70;;;;;;;7.62;43.80;96154.84;5084703;28;20028;-79
2022/02/24 09:25:50;;;;;;;4.68;2.70;;;;;;;7.21;44.93;96161.13;5086829;28;20047;-78
2022/02/24 09:28:16;;;;;;;5.28;2.60;;;;;;;7.05;45.54;96159.84;5085159;28;20410;-78
2022/02/24 09:30:41;;;;;;;4.57;2.40;;;;;;;6.72;47.39;96159.22;5086452;28;20462;-78
2022/02/24 09:33:06;;;;;;;3.47;2.20;;;;;;;6.71;47.32;96160.16;5084400;28;20028;-78
2022/02/24 09:35:33;;;;;;;2.63;2.03;;;;;;;6.54;47.67;96159.00;5085492;28;20020;-77
2022/02/24 09:37:58;;;;;;;4.20;2.17;;;;;;;6.34;48.93;96156.22;5086401;28;20046;-78
2022/02/24 09:40:25;;;;;;;2.65;1.75;;;;;;;6.20;49.18;96154.75;5088644;28;20027;-78
2022/02/24 09:42:51;;;;;;;2.20;1.60;;;;;;;5.97;49.09;96146.03;5090553;28;20107;-78
2022/02/24 09:45:16;;;;;;;2.20;1.63;;;;;;;5.96;50.35;96149.69;5087216;28;20108;-78
2022/02/24 09:47:41;;;;;;;2.50;1.77;;;;;;;5.88;49.92;96147.66;5090404;28;20036;-77
2022/02/24 09:50:07;;;;;;;2.75;1.75;;;;;;;5.89;49.93;96144.88;5070576;28;20028;-77
2022/02/24 09:52:33;;;;;;;6.82;2.10;;;;;;;5.91;50.01;96144.75;5089259;28;20052;-76
2022/02/24 09:54:59;;;;;;;1.70;1.40;;;;;;;6.08;49.50;96142.50;5089852;28;20020;-77
2022/02/24 09:57:24;;;;;;;4.53;1.80;;;;;;;6.08;49.65;96142.50;5087096;28;20028;-78
2022/02/24 09:59:50;;;;;;;4.35;1.70;;;;;;;6.16;50.06;96137.34;5072053;28;20085;-77
2022/02/24 10:02:18;;;;;;;3.58;1.70;;;;;;;6.23;49.28;96135.84;5086778;28;20020;-79
2022/02/24 10:05:22;;;;;;;2.13;1.52;;;;;;;6.12;49.77;96133.25;5090061;28;20039;-80
2022/02/24 10:07:49;;;;;;;4.88;1.70;;;;;;;6.18;49.54;96127.41;5007326;28;20520;-79
2022/02/24 10:10:33;;;;;;;3.70;2.13;;;;;;;6.32;50.36;96123.53;4973821;28;20188;-77
2022/02/24 10:13:04;;;;;;;3.90;2.63;;;;;;;6.32;50.25;96118.22;5056714;28;20516;-78
2022/02/24 10:15:30;;;;;;;2.90;2.00;;;;;;;6.32;49.77;96118.22;5087792;28;20032;-78
2022/02/24 10:18:09;;;;;;;4.30;2.50;;;;;;;6.36;50.25;96118.78;5089906;28;20020;-78
2022/02/24 10:20:39;;;;;;;3.70;2.20;;;;;;;6.40;49.56;96118.38;5088927;28;20028;-77
2022/02/24 10:23:05;;;;;;;5.60;2.60;;;;;;;6.39;50.25;96114.03;5087251;28;20102;-77
2022/02/24 10:25:37;;;;;;;3.80;2.30;;;;;;;6.33;50.76;96116.41;5089346;28;20123;-77
2022/02/24 10:28:04;;;;;;;2.63;1.90;;;;;;;6.21;51.16;96110.31;5086673;28;20028;-78
2022/02/24 10:30:30;;;;;;;4.43;2.42;;;;;;;6.22;50.17;96107.53;5089119;28;20035;-78
2022/02/24 10:32:56;;;;;;;5.20;2.40;;;;;;;6.35;49.72;96101.13;5087550;28;20028;-76
2022/02/24 10:35:22;;;;;;;6.53;2.70;;;;;;;6.43;49.87;96099.47;5089346;28;20028;-77
2022/02/24 10:37:54;;;;;;;6.43;2.38;;;;;;;6.49;50.07;96097.25;5087186;28;20076;-77
2022/02/24 10:40:20;;;;;;;4.30;2.00;;;;;;;6.53;48.63;96086.19;5086868;28;20024;-78
2022/02/24 10:42:45;;;;;;;4.97;2.08;;;;;;;6.52;48.63;96083.66;5087859;28;20402;-78
2022/02/24 10:45:16;;;;;;;3.55;2.10;;;;;;;6.54;49.40;96081.69;5087387;28;20016;-78
2022/02/24 10:48:02;;;;;;;4.53;2.60;;;;;;;6.48;49.68;96076.91;5089337;28;20077;-77
2022/02/24 10:50:49;;;;;;;4.95;2.40;;;;;;;6.49;49.61;96081.25;5085970;28;20028;-78
2022/02/24 10:53:15;;;;;;;4.43;2.58;;;;;;;6.60;49.20;96080.28;5088005;28;20040;-78
2022/02/24 10:56:04;;;;;;;3.28;2.00;;;;;;;6.65;47.53;96062.09;5087320;28;20082;-78
2022/02/24 10:58:35;;;;;;;2.97;1.92;;;;;;;6.77;47.46;96063.66;5073410;28;20036;-78
2022/02/24 11:01:11;;;;;;;2.88;2.00;;;;;;;6.72;46.68;96060.56;5087770;28;20099;-78
2022/02/24 11:03:38;;;;;;;4.97;2.70;;;;;;;6.54;48.32;96063.91;5087493;28;20035;-76
2022/02/24 11:06:05;;;;;;;5.32;3.17;;;;;;;6.58;48.37;96052.97;5070130;28;20032;-78
2022/02/24 11:08:31;;;;;;;5.22;3.30;;;;;;;6.54;48.49;96053.25;5070385;28;20028;-77
2022/02/24 11:10:57;;;;;;;5.10;2.80;;;;;;;6.23;48.71;96058.59;5085790;28;20511;-78
2022/02/24 11:13:23;;;;;;;4.15;3.05;;;;;;;6.40;48.75;96053.63;5088435;28;20032;-78
2022/02/24 11:15:50;;;;;;;5.38;2.63;;;;;;;6.40;49.08;96050.94;5086515;28;20402;-77
2022/02/24 11:18:16;;;;;;;7.00;3.45;;;;;;;6.48;49.08;96037.75;5070583;28;20410;-76
2022/02/24 11:20:41;;;;;;;5.00;2.72;;;;;;;6.59;49.55;96039.50;5085372;28;20028;-80
2022/02/24 11:23:07;;;;;;;2.88;2.45;;;;;;;6.50;48.54;96033.16;5086569;28;20039;-77
2022/02/24 11:25:32;;;;;;;4.57;2.67;;;;;;;6.62;47.35;96033.88;5086227;28;20020;-78
2022/02/24 11:27:58;;;;;;;3.08;2.47;;;;;;;6.52;47.75;96027.69;5069121;28;20024;-78
2022/02/24 11:30:28;;;;;;;4.82;2.35;;;;;;;6.40;47.20;96029.63;5070006;28;20067;-77
2022/02/24 11:32:53;;;;;;;2.38;1.70;;;;;;;6.64;45.64;96021.25;5068586;28;20030;-78
2022/02/24 11:35:19;;;;;;;2.80;1.60;;;;;;;6.81;45.45;96018.88;5086972;28;20016;-78